Grand Junction, CO

12:33 PM MDT on August 29, 2014 (GMT -0600)
Garfield County Regional | Change Station
CLOSE
Current Station
Airport
Location: Rifle,
Elevation: 5541 ft
Nearby Weather Stations

Elev 5541 ft 39.52 °N, 107.73 °W | Updated 40 minutes ago

Clear
Clear
70 °F
Feels Like 70 °F
N
0
Wind Variable Wind from North

Today
High -- | Low -- °F
--% Chance of Precip.
Yesterday
High -- | Low -- °F
Precip. -- in
6:40 AM 7:49 PM
Waxing Crescent, 16% visible
Pressure 30.05 in
Visibility 10.0 miles
Clouds Clear
Dew Point 47 °F
Humidity 44%
Rainfall 0.00 in
Snow Depth Not available.
UV 9 out of 12
Pollen 9.70 out of 12
Air Quality Not available.
Flu Activity Not available.
METAR KRIL 291753Z AUTO 00000KT 10SM CLR 21/08 A3021 RMK AO2 SLP174 T02110083 10211 20100 58011

More Conditions Fewer Conditions

Pressure 30.05 in
Visibility 10.0 miles
Clouds Clear
Dew Point 47 °F
Humidity 44%
Rainfall 0.00 in
Snow Depth Not available.
UV 9 out of 12
Pollen 9.70 out of 12
Air Quality Not available.
Flu Activity Not available.
METAR KRIL 291753Z AUTO 00000KT 10SM CLR 21/08 A3021 RMK AO2 SLP174 T02110083 10211 20100 58011

More Conditions Fewer Conditions

10-Day Weather Forecast

Almanac

Astronomy

Aug. 29, 2014 Rise Set
Actual Time 6:40 AM MDT 7:49 PM MDT
Civil Twilight 6:12 AM MDT 8:16 PM MDT
Nautical Twilight 5:39 AM MDT 8:49 PM MDT
Astronomical Twilight 5:05 AM MDT 9:23 PM MDT
Moon 10:30 AM MDT 9:50 PM MDT
Length of Visible Light 14h 03m
Length of Day
13h 08m
Tomorrow will be 2m 25s shorter.
Waxing Crescent, 16% of the Moon is Illuminated
Today
Waxing Crescent
Sep 2
First Quarter
Sep 8
Full
Sep 15
Last Quarter
Sep 24
New

Today's Extremes

State Highs State Lows

Community

WunderPhotos

Upload Photos

1,748,313 photos uploaded!

Nearby

Snow Depth

Station Depth Elevation
Park Reservoir 0 in 9960 ft
Overland Reservoir 0 in 9880 ft
McClure Pass 0 in 9500 ft
North Lost Trail 1 in 9200 ft
Burro Mountain 0 in 9400 ft

Earthquake Activity

City Distance Mag. Time & Date
No recent earthquake activity has been reported nearby.
Minimum magnitude displayed is 2.5.

Coastal Water Temperatures

Place Temperature
No Stations Reporting

Nearby Weather Stations